sensor_id;sensor_type;location;lat;lon;timestamp;P1;durP1;ratioP1;P2;durP2;ratioP2
29432;SDS011;16405;53.964;13.448;2023-07-30T00:02:17;15.45;;;8.18;;
29432;SDS011;16405;53.964;13.448;2023-07-30T00:04:59;11.20;;;6.47;;
29432;SDS011;16405;53.964;13.448;2023-07-30T00:07:25;12.88;;;7.10;;
29432;SDS011;16405;53.964;13.448;2023-07-30T00:13:17;15.13;;;7.82;;
29432;SDS011;16405;53.964;13.448;2023-07-30T00:15:58;15.32;;;8.70;;
29432;SDS011;16405;53.964;13.448;2023-07-30T00:18:47;16.55;;;8.73;;
29432;SDS011;16405;53.964;13.448;2023-07-30T00:21:18;19.52;;;9.52;;
29432;SDS011;16405;53.964;13.448;2023-07-30T00:26:49;22.55;;;8.75;;
29432;SDS011;16405;53.964;13.448;2023-07-30T00:29:15;25.10;;;10.10;;
29432;SDS011;16405;53.964;13.448;2023-07-30T00:31:41;27.73;;;9.82;;
29432;SDS011;16405;53.964;13.448;2023-07-30T00:34:36;19.92;;;9.18;;
29432;SDS011;16405;53.964;13.448;2023-07-30T00:40:28;27.23;;;10.63;;
29432;SDS011;16405;53.964;13.448;2023-07-30T00:43:10;18.92;;;8.65;;
29432;SDS011;16405;53.964;13.448;2023-07-30T00:45:46;20.17;;;8.90;;
29432;SDS011;16405;53.964;13.448;2023-07-30T00:48:15;19.92;;;9.85;;
29432;SDS011;16405;53.964;13.448;2023-07-30T00:51:06;18.70;;;9.13;;
29432;SDS011;16405;53.964;13.448;2023-07-30T00:56:57;22.80;;;9.82;;
29432;SDS011;16405;53.964;13.448;2023-07-30T00:59:36;22.63;;;9.93;;
29432;SDS011;16405;53.964;13.448;2023-07-30T01:02:06;21.52;;;11.35;;
29432;SDS011;16405;53.964;13.448;2023-07-30T01:08:27;17.90;;;9.65;;
29432;SDS011;16405;53.964;13.448;2023-07-30T01:11:06;20.85;;;10.77;;
29432;SDS011;16405;53.964;13.448;2023-07-30T01:16:47;23.42;;;11.35;;
29432;SDS011;16405;53.964;13.448;2023-07-30T01:19:25;23.88;;;11.63;;
29432;SDS011;16405;53.964;13.448;2023-07-30T01:22:00;24.42;;;12.48;;
29432;SDS011;16405;53.964;13.448;2023-07-30T01:24:47;22.63;;;11.98;;
29432;SDS011;16405;53.964;13.448;2023-07-30T01:27:54;21.65;;;12.57;;
29432;SDS011;16405;53.964;13.448;2023-07-30T01:30:37;24.10;;;12.10;;
29432;SDS011;16405;53.964;13.448;2023-07-30T01:34:19;17.17;;;11.30;;
29432;SDS011;16405;53.964;13.448;2023-07-30T01:36:45;33.20;;;13.82;;
29432;SDS011;16405;53.964;13.448;2023-07-30T01:39:40;21.70;;;9.05;;
29432;SDS011;16405;53.964;13.448;2023-07-30T01:42:54;20.50;;;12.52;;
29432;SDS011;16405;53.964;13.448;2023-07-30T01:45:27;20.98;;;11.10;;
29432;SDS011;16405;53.964;13.448;2023-07-30T01:48:07;12.90;;;8.95;;
29432;SDS011;16405;53.964;13.448;2023-07-30T01:50:39;22.15;;;11.00;;
29432;SDS011;16405;53.964;13.448;2023-07-30T01:53:34;18.23;;;11.23;;
29432;SDS011;16405;53.964;13.448;2023-07-30T01:56:25;24.33;;;12.95;;
29432;SDS011;16405;53.964;13.448;2023-07-30T01:59:26;22.35;;;12.60;;
29432;SDS011;16405;53.964;13.448;2023-07-30T02:02:07;32.65;;;13.23;;
29432;SDS011;16405;53.964;13.448;2023-07-30T02:04:47;29.15;;;12.38;;
29432;SDS011;16405;53.964;13.448;2023-07-30T02:07:26;26.17;;;13.02;;
29432;SDS011;16405;53.964;13.448;2023-07-30T02:09:55;28.77;;;14.18;;
29432;SDS011;16405;53.964;13.448;2023-07-30T02:12:23;23.85;;;12.10;;
29432;SDS011;16405;53.964;13.448;2023-07-30T02:15:10;24.45;;;11.27;;
29432;SDS011;16405;53.964;13.448;2023-07-30T02:17:35;22.10;;;10.27;;
29432;SDS011;16405;53.964;13.448;2023-07-30T02:20:12;20.00;;;7.40;;
29432;SDS011;16405;53.964;13.448;2023-07-30T02:22:49;12.90;;;7.53;;
29432;SDS011;16405;53.964;13.448;2023-07-30T02:25:15;16.95;;;7.00;;
29432;SDS011;16405;53.964;13.448;2023-07-30T02:27:41;36.53;;;12.90;;
29432;SDS011;16405;53.964;13.448;2023-07-30T02:30:18;20.30;;;7.90;;
29432;SDS011;16405;53.964;13.448;2023-07-30T02:32:44;136.07;;;28.60;;
29432;SDS011;16405;53.964;13.448;2023-07-30T02:35:10;28.90;;;13.35;;
29432;SDS011;16405;53.964;13.448;2023-07-30T02:37:51;266.10;;;29.45;;
29432;SDS011;16405;53.964;13.448;2023-07-30T02:46:07;20.17;;;12.77;;
29432;SDS011;16405;53.964;13.448;2023-07-30T02:48:46;25.63;;;10.35;;
29432;SDS011;16405;53.964;13.448;2023-07-30T02:54:36;35.67;;;11.23;;
29432;SDS011;16405;53.964;13.448;2023-07-30T02:57:02;25.13;;;10.52;;
29432;SDS011;16405;53.964;13.448;2023-07-30T03:03:06;23.88;;;11.48;;
29432;SDS011;16405;53.964;13.448;2023-07-30T03:06:05;21.38;;;11.10;;
29432;SDS011;16405;53.964;13.448;2023-07-30T03:08:56;127.30;;;15.70;;
29432;SDS011;16405;53.964;13.448;2023-07-30T03:11:37;12.55;;;6.38;;
29432;SDS011;16405;53.964;13.448;2023-07-30T03:14:04;661.33;;;32.45;;
29432;SDS011;16405;53.964;13.448;2023-07-30T03:16:30;115.75;;;20.33;;
29432;SDS011;16405;53.964;13.448;2023-07-30T03:19:25;13.02;;;7.20;;
29432;SDS011;16405;53.964;13.448;2023-07-30T03:22:17;9.25;;;6.47;;
29432;SDS011;16405;53.964;13.448;2023-07-30T03:24:46;11.05;;;5.70;;
29432;SDS011;16405;53.964;13.448;2023-07-30T03:27:16;13.88;;;6.40;;
29432;SDS011;16405;53.964;13.448;2023-07-30T03:30:03;16.55;;;5.70;;
29432;SDS011;16405;53.964;13.448;2023-07-30T03:32:30;101.00;;;22.73;;
29432;SDS011;16405;53.964;13.448;2023-07-30T03:35:17;30.20;;;11.20;;
29432;SDS011;16405;53.964;13.448;2023-07-30T03:37:45;29.10;;;15.35;;
29432;SDS011;16405;53.964;13.448;2023-07-30T03:43:06;18.98;;;9.65;;
29432;SDS011;16405;53.964;13.448;2023-07-30T03:45:35;44.28;;;11.82;;
29432;SDS011;16405;53.964;13.448;2023-07-30T03:48:09;550.17;;;29.45;;
29432;SDS011;16405;53.964;13.448;2023-07-30T03:50:34;15.27;;;7.15;;
29432;SDS011;16405;53.964;13.448;2023-07-30T03:53:00;55.08;;;14.10;;
29432;SDS011;16405;53.964;13.448;2023-07-30T03:58:47;34.85;;;12.40;;
29432;SDS011;16405;53.964;13.448;2023-07-30T04:01:19;37.35;;;13.25;;
29432;SDS011;16405;53.964;13.448;2023-07-30T04:03:57;27.48;;;14.20;;
29432;SDS011;16405;53.964;13.448;2023-07-30T04:06:35;19.83;;;12.45;;
29432;SDS011;16405;53.964;13.448;2023-07-30T04:09:01;28.73;;;14.07;;
29432;SDS011;16405;53.964;13.448;2023-07-30T04:14:36;69.22;;;14.18;;
29432;SDS011;16405;53.964;13.448;2023-07-30T04:17:02;95.32;;;13.90;;
29432;SDS011;16405;53.964;13.448;2023-07-30T04:19:38;23.20;;;10.50;;
29432;SDS011;16405;53.964;13.448;2023-07-30T04:22:06;15.25;;;9.00;;
29432;SDS011;16405;53.964;13.448;2023-07-30T04:24:46;28.80;;;8.25;;
29432;SDS011;16405;53.964;13.448;2023-07-30T04:30:00;20.25;;;6.03;;
29432;SDS011;16405;53.964;13.448;2023-07-30T04:33:14;20.48;;;5.20;;
29432;SDS011;16405;53.964;13.448;2023-07-30T04:38:35;11.07;;;4.97;;
29432;SDS011;16405;53.964;13.448;2023-07-30T04:41:01;15.00;;;5.13;;
29432;SDS011;16405;53.964;13.448;2023-07-30T04:43:42;25.00;;;6.10;;
29432;SDS011;16405;53.964;13.448;2023-07-30T04:46:16;18.00;;;5.32;;
29432;SDS011;16405;53.964;13.448;2023-07-30T04:48:45;14.88;;;5.22;;
29432;SDS011;16405;53.964;13.448;2023-07-30T04:51:18;18.45;;;4.93;;
29432;SDS011;16405;53.964;13.448;2023-07-30T04:53:49;26.10;;;5.55;;
29432;SDS011;16405;53.964;13.448;2023-07-30T04:56:28;14.25;;;4.57;;
29432;SDS011;16405;53.964;13.448;2023-07-30T04:58:55;14.77;;;4.28;;
29432;SDS011;16405;53.964;13.448;2023-07-30T05:01:33;14.32;;;4.00;;
29432;SDS011;16405;53.964;13.448;2023-07-30T05:03:58;9.23;;;3.88;;
29432;SDS011;16405;53.964;13.448;2023-07-30T05:06:30;12.30;;;4.45;;
29432;SDS011;16405;53.964;13.448;2023-07-30T05:09:03;15.85;;;4.13;;
29432;SDS011;16405;53.964;13.448;2023-07-30T05:11:55;13.65;;;4.00;;
29432;SDS011;16405;53.964;13.448;2023-07-30T05:15:06;14.38;;;4.18;;
29432;SDS011;16405;53.964;13.448;2023-07-30T05:17:45;11.30;;;3.80;;
29432;SDS011;16405;53.964;13.448;2023-07-30T05:20:29;19.85;;;4.47;;
29432;SDS011;16405;53.964;13.448;2023-07-30T05:23:08;15.18;;;4.10;;
29432;SDS011;16405;53.964;13.448;2023-07-30T05:29:14;12.63;;;3.58;;
29432;SDS011;16405;53.964;13.448;2023-07-30T05:31:26;11.63;;;3.97;;
29432;SDS011;16405;53.964;13.448;2023-07-30T05:37:15;12.02;;;3.97;;
29432;SDS011;16405;53.964;13.448;2023-07-30T05:39:59;11.50;;;3.55;;
29432;SDS011;16405;53.964;13.448;2023-07-30T05:42:39;7.78;;;3.00;;
29432;SDS011;16405;53.964;13.448;2023-07-30T05:48:47;10.98;;;3.05;;
29432;SDS011;16405;53.964;13.448;2023-07-30T05:51:25;10.88;;;3.03;;
29432;SDS011;16405;53.964;13.448;2023-07-30T05:53:50;8.35;;;2.78;;
29432;SDS011;16405;53.964;13.448;2023-07-30T05:56:55;16.15;;;2.85;;
29432;SDS011;16405;53.964;13.448;2023-07-30T05:59:27;10.38;;;2.85;;
29432;SDS011;16405;53.964;13.448;2023-07-30T06:02:16;13.02;;;2.90;;
29432;SDS011;16405;53.964;13.448;2023-07-30T06:04:57;9.65;;;3.03;;
29432;SDS011;16405;53.964;13.448;2023-07-30T06:10:36;8.80;;;2.67;;
29432;SDS011;16405;53.964;13.448;2023-07-30T06:13:15;9.15;;;2.50;;
29432;SDS011;16405;53.964;13.448;2023-07-30T06:18:37;7.75;;;2.13;;
29432;SDS011;16405;53.964;13.448;2023-07-30T06:24:11;13.82;;;2.53;;
29432;SDS011;16405;53.964;13.448;2023-07-30T06:27:01;11.00;;;2.38;;
29432;SDS011;16405;53.964;13.448;2023-07-30T06:32:26;8.35;;;2.45;;
29432;SDS011;16405;53.964;13.448;2023-07-30T06:35:04;10.50;;;2.65;;
29432;SDS011;16405;53.964;13.448;2023-07-30T06:40:37;14.15;;;3.33;;
29432;SDS011;16405;53.964;13.448;2023-07-30T06:43:05;11.40;;;2.60;;
29432;SDS011;16405;53.964;13.448;2023-07-30T06:45:31;6.95;;;2.20;;
29432;SDS011;16405;53.964;13.448;2023-07-30T06:48:09;9.48;;;2.53;;
29432;SDS011;16405;53.964;13.448;2023-07-30T06:50:47;9.45;;;2.45;;
29432;SDS011;16405;53.964;13.448;2023-07-30T06:53:15;11.57;;;2.30;;
29432;SDS011;16405;53.964;13.448;2023-07-30T06:55:41;6.30;;;1.90;;
29432;SDS011;16405;53.964;13.448;2023-07-30T06:58:30;10.02;;;2.22;;
29432;SDS011;16405;53.964;13.448;2023-07-30T07:01:02;9.15;;;2.25;;
29432;SDS011;16405;53.964;13.448;2023-07-30T07:03:33;12.70;;;1.92;;
29432;SDS011;16405;53.964;13.448;2023-07-30T07:05:59;6.15;;;2.13;;
29432;SDS011;16405;53.964;13.448;2023-07-30T07:08:25;9.07;;;2.15;;
29432;SDS011;16405;53.964;13.448;2023-07-30T07:11:06;8.82;;;2.20;;
29432;SDS011;16405;53.964;13.448;2023-07-30T07:13:32;12.02;;;2.28;;
29432;SDS011;16405;53.964;13.448;2023-07-30T07:16:10;9.73;;;2.25;;
29432;SDS011;16405;53.964;13.448;2023-07-30T07:18:46;11.20;;;2.58;;
29432;SDS011;16405;53.964;13.448;2023-07-30T07:21:16;12.50;;;2.13;;
29432;SDS011;16405;53.964;13.448;2023-07-30T07:23:43;11.52;;;2.00;;
29432;SDS011;16405;53.964;13.448;2023-07-30T07:26:17;6.78;;;1.92;;
29432;SDS011;16405;53.964;13.448;2023-07-30T07:28:46;11.45;;;2.45;;
29432;SDS011;16405;53.964;13.448;2023-07-30T07:31:18;6.15;;;1.70;;
29432;SDS011;16405;53.964;13.448;2023-07-30T07:33:44;6.03;;;1.70;;
29432;SDS011;16405;53.964;13.448;2023-07-30T07:36:10;8.23;;;1.80;;
29432;SDS011;16405;53.964;13.448;2023-07-30T07:38:36;7.80;;;2.03;;
29432;SDS011;16405;53.964;13.448;2023-07-30T07:41:13;7.65;;;1.90;;
29432;SDS011;16405;53.964;13.448;2023-07-30T07:43:41;8.32;;;1.95;;
29432;SDS011;16405;53.964;13.448;2023-07-30T07:48:43;9.67;;;1.97;;
29432;SDS011;16405;53.964;13.448;2023-07-30T07:51:09;11.60;;;1.77;;
29432;SDS011;16405;53.964;13.448;2023-07-30T07:53:36;9.93;;;2.13;;
29432;SDS011;16405;53.964;13.448;2023-07-30T07:56:09;7.57;;;2.00;;
29432;SDS011;16405;53.964;13.448;2023-07-30T07:58:38;11.93;;;2.38;;
29432;SDS011;16405;53.964;13.448;2023-07-30T08:01:06;14.20;;;2.55;;
29432;SDS011;16405;53.964;13.448;2023-07-30T08:03:37;10.75;;;2.03;;
29432;SDS011;16405;53.964;13.448;2023-07-30T08:06:03;10.45;;;2.63;;
29432;SDS011;16405;53.964;13.448;2023-07-30T08:08:31;15.63;;;2.60;;
29432;SDS011;16405;53.964;13.448;2023-07-30T08:11:05;8.20;;;2.20;;
29432;SDS011;16405;53.964;13.448;2023-07-30T08:13:32;6.82;;;2.15;;
29432;SDS011;16405;53.964;13.448;2023-07-30T08:15:59;8.63;;;2.53;;
29432;SDS011;16405;53.964;13.448;2023-07-30T08:18:32;8.05;;;2.40;;
29432;SDS011;16405;53.964;13.448;2023-07-30T08:21:01;5.75;;;2.65;;
29432;SDS011;16405;53.964;13.448;2023-07-30T08:23:42;5.85;;;2.40;;
29432;SDS011;16405;53.964;13.448;2023-07-30T08:26:11;8.30;;;2.63;;
29432;SDS011;16405;53.964;13.448;2023-07-30T08:28:39;13.00;;;3.55;;
29432;SDS011;16405;53.964;13.448;2023-07-30T08:31:05;6.43;;;2.90;;
29432;SDS011;16405;53.964;13.448;2023-07-30T08:46:31;9.48;;;4.55;;
29432;SDS011;16405;53.964;13.448;2023-07-30T08:48:59;4.95;;;4.45;;
29432;SDS011;16405;53.964;13.448;2023-07-30T08:51:25;9.80;;;4.28;;
29432;SDS011;16405;53.964;13.448;2023-07-30T08:56:39;5.97;;;4.15;;
29432;SDS011;16405;53.964;13.448;2023-07-30T08:59:06;5.30;;;3.92;;
29432;SDS011;16405;53.964;13.448;2023-07-30T09:01:34;7.70;;;3.17;;
29432;SDS011;16405;53.964;13.448;2023-07-30T09:06:42;4.80;;;2.50;;
29432;SDS011;16405;53.964;13.448;2023-07-30T09:09:13;4.55;;;2.90;;
29432;SDS011;16405;53.964;13.448;2023-07-30T09:11:42;6.65;;;2.65;;
29432;SDS011;16405;53.964;13.448;2023-07-30T09:14:20;4.85;;;2.88;;
29432;SDS011;16405;53.964;13.448;2023-07-30T09:17:03;5.88;;;2.40;;
29432;SDS011;16405;53.964;13.448;2023-07-30T09:19:37;7.63;;;2.03;;
29432;SDS011;16405;53.964;13.448;2023-07-30T09:25:05;4.60;;;1.83;;
29432;SDS011;16405;53.964;13.448;2023-07-30T09:27:41;4.90;;;1.63;;
29432;SDS011;16405;53.964;13.448;2023-07-30T09:30:14;12.90;;;1.90;;
29432;SDS011;16405;53.964;13.448;2023-07-30T09:32:50;5.40;;;1.58;;
29432;SDS011;16405;53.964;13.448;2023-07-30T09:35:25;2.57;;;1.50;;
29432;SDS011;16405;53.964;13.448;2023-07-30T09:37:58;3.03;;;1.65;;
29432;SDS011;16405;53.964;13.448;2023-07-30T09:40:33;3.63;;;1.50;;
29432;SDS011;16405;53.964;13.448;2023-07-30T09:45:34;7.95;;;1.70;;
29432;SDS011;16405;53.964;13.448;2023-07-30T09:48:12;2.78;;;1.50;;
29432;SDS011;16405;53.964;13.448;2023-07-30T09:50:45;2.97;;;1.90;;
29432;SDS011;16405;53.964;13.448;2023-07-30T09:53:17;2.08;;;1.38;;
29432;SDS011;16405;53.964;13.448;2023-07-30T09:55:51;7.07;;;1.92;;
29432;SDS011;16405;53.964;13.448;2023-07-30T09:58:17;2.22;;;1.63;;
29432;SDS011;16405;53.964;13.448;2023-07-30T10:00:44;4.95;;;1.73;;
29432;SDS011;16405;53.964;13.448;2023-07-30T10:03:14;4.60;;;1.60;;
29432;SDS011;16405;53.964;13.448;2023-07-30T10:05:45;3.03;;;1.33;;
29432;SDS011;16405;53.964;13.448;2023-07-30T10:08:23;2.95;;;1.50;;
29432;SDS011;16405;53.964;13.448;2023-07-30T10:10:54;5.57;;;1.60;;
29432;SDS011;16405;53.964;13.448;2023-07-30T10:13:28;3.35;;;1.60;;
29432;SDS011;16405;53.964;13.448;2023-07-30T10:15:57;4.03;;;1.30;;
29432;SDS011;16405;53.964;13.448;2023-07-30T10:21:26;2.17;;;1.50;;
29432;SDS011;16405;53.964;13.448;2023-07-30T10:23:58;4.43;;;1.63;;
29432;SDS011;16405;53.964;13.448;2023-07-30T10:26:33;7.75;;;1.60;;
29432;SDS011;16405;53.964;13.448;2023-07-30T10:29:18;3.60;;;1.40;;
29432;SDS011;16405;53.964;13.448;2023-07-30T10:31:56;10.38;;;1.60;;
29432;SDS011;16405;53.964;13.448;2023-07-30T10:34:43;4.38;;;1.33;;
29432;SDS011;16405;53.964;13.448;2023-07-30T10:37:18;11.57;;;1.60;;
29432;SDS011;16405;53.964;13.448;2023-07-30T10:39:49;5.18;;;2.05;;
29432;SDS011;16405;53.964;13.448;2023-07-30T10:42:18;8.77;;;1.65;;
29432;SDS011;16405;53.964;13.448;2023-07-30T10:44:47;3.15;;;1.60;;
29432;SDS011;16405;53.964;13.448;2023-07-30T10:47:18;9.57;;;1.65;;
29432;SDS011;16405;53.964;13.448;2023-07-30T10:49:44;6.82;;;1.40;;
29432;SDS011;16405;53.964;13.448;2023-07-30T10:52:11;5.05;;;1.50;;
29432;SDS011;16405;53.964;13.448;2023-07-30T10:54:41;3.08;;;1.55;;
29432;SDS011;16405;53.964;13.448;2023-07-30T10:57:13;2.88;;;1.30;;
29432;SDS011;16405;53.964;13.448;2023-07-30T10:59:47;4.30;;;1.48;;
29432;SDS011;16405;53.964;13.448;2023-07-30T11:02:20;7.20;;;1.80;;
29432;SDS011;16405;53.964;13.448;2023-07-30T11:04:48;8.82;;;1.65;;
29432;SDS011;16405;53.964;13.448;2023-07-30T11:07:21;3.72;;;1.52;;
29432;SDS011;16405;53.964;13.448;2023-07-30T11:09:57;4.22;;;1.50;;
29432;SDS011;16405;53.964;13.448;2023-07-30T11:12:28;6.65;;;1.50;;
29432;SDS011;16405;53.964;13.448;2023-07-30T11:15:03;4.85;;;1.60;;
29432;SDS011;16405;53.964;13.448;2023-07-30T11:17:32;7.35;;;1.20;;
29432;SDS011;16405;53.964;13.448;2023-07-30T11:19:59;8.43;;;1.50;;
29432;SDS011;16405;53.964;13.448;2023-07-30T11:22:35;3.60;;;1.40;;
29432;SDS011;16405;53.964;13.448;2023-07-30T11:25:03;5.78;;;1.23;;
29432;SDS011;16405;53.964;13.448;2023-07-30T11:27:49;4.60;;;1.73;;
29432;SDS011;16405;53.964;13.448;2023-07-30T11:30:16;7.40;;;1.55;;
29432;SDS011;16405;53.964;13.448;2023-07-30T11:32:47;11.05;;;1.65;;
29432;SDS011;16405;53.964;13.448;2023-07-30T11:35:16;8.27;;;1.80;;
29432;SDS011;16405;53.964;13.448;2023-07-30T11:37:45;2.70;;;1.25;;
29432;SDS011;16405;53.964;13.448;2023-07-30T11:40:20;4.53;;;1.50;;
29432;SDS011;16405;53.964;13.448;2023-07-30T11:42:50;9.68;;;1.60;;
29432;SDS011;16405;53.964;13.448;2023-07-30T11:47:55;3.87;;;1.40;;
29432;SDS011;16405;53.964;13.448;2023-07-30T11:50:45;9.10;;;1.65;;
29432;SDS011;16405;53.964;13.448;2023-07-30T11:53:13;8.13;;;1.70;;
29432;SDS011;16405;53.964;13.448;2023-07-30T11:55:46;7.05;;;1.75;;
29432;SDS011;16405;53.964;13.448;2023-07-30T11:58:12;4.32;;;1.60;;
29432;SDS011;16405;53.964;13.448;2023-07-30T12:00:39;5.07;;;1.75;;
29432;SDS011;16405;53.964;13.448;2023-07-30T12:03:09;6.38;;;1.70;;
29432;SDS011;16405;53.964;13.448;2023-07-30T12:05:42;4.50;;;1.67;;
29432;SDS011;16405;53.964;13.448;2023-07-30T12:08:16;3.17;;;1.48;;
29432;SDS011;16405;53.964;13.448;2023-07-30T12:10:49;7.90;;;1.40;;
29432;SDS011;16405;53.964;13.448;2023-07-30T12:13:18;4.55;;;1.60;;
29432;SDS011;16405;53.964;13.448;2023-07-30T12:15:52;7.43;;;1.90;;
29432;SDS011;16405;53.964;13.448;2023-07-30T12:18:20;3.20;;;1.65;;
29432;SDS011;16405;53.964;13.448;2023-07-30T12:20:50;3.72;;;1.60;;
29432;SDS011;16405;53.964;13.448;2023-07-30T12:23:18;5.78;;;1.73;;
29432;SDS011;16405;53.964;13.448;2023-07-30T12:25:46;3.47;;;1.83;;
29432;SDS011;16405;53.964;13.448;2023-07-30T12:28:23;4.30;;;1.73;;
29432;SDS011;16405;53.964;13.448;2023-07-30T12:30:49;3.20;;;1.48;;
29432;SDS011;16405;53.964;13.448;2023-07-30T12:33:15;5.53;;;1.75;;
29432;SDS011;16405;53.964;13.448;2023-07-30T12:35:41;6.88;;;1.58;;
29432;SDS011;16405;53.964;13.448;2023-07-30T12:38:12;3.20;;;1.60;;
29432;SDS011;16405;53.964;13.448;2023-07-30T12:40:40;8.70;;;1.50;;
29432;SDS011;16405;53.964;13.448;2023-07-30T12:43:08;4.13;;;1.50;;
29432;SDS011;16405;53.964;13.448;2023-07-30T12:45:34;9.10;;;1.52;;
29432;SDS011;16405;53.964;13.448;2023-07-30T12:48:01;7.25;;;1.50;;
29432;SDS011;16405;53.964;13.448;2023-07-30T12:50:34;6.88;;;1.45;;
29432;SDS011;16405;53.964;13.448;2023-07-30T12:53:00;5.32;;;1.60;;
29432;SDS011;16405;53.964;13.448;2023-07-30T12:55:29;4.00;;;1.35;;
29432;SDS011;16405;53.964;13.448;2023-07-30T12:57:57;8.68;;;1.63;;
29432;SDS011;16405;53.964;13.448;2023-07-30T13:00:23;10.15;;;1.90;;
29432;SDS011;16405;53.964;13.448;2023-07-30T13:02:58;3.83;;;1.40;;
29432;SDS011;16405;53.964;13.448;2023-07-30T13:05:27;4.72;;;1.92;;
29432;SDS011;16405;53.964;13.448;2023-07-30T13:07:54;6.15;;;1.50;;
29432;SDS011;16405;53.964;13.448;2023-07-30T13:10:22;5.60;;;1.70;;
29432;SDS011;16405;53.964;13.448;2023-07-30T13:12:51;6.13;;;1.60;;
29432;SDS011;16405;53.964;13.448;2023-07-30T13:15:20;5.95;;;1.50;;
29432;SDS011;16405;53.964;13.448;2023-07-30T13:17:46;5.68;;;1.50;;
29432;SDS011;16405;53.964;13.448;2023-07-30T13:20:11;5.53;;;1.65;;
29432;SDS011;16405;53.964;13.448;2023-07-30T13:22:37;5.18;;;1.80;;
29432;SDS011;16405;53.964;13.448;2023-07-30T13:25:03;4.95;;;1.30;;
29432;SDS011;16405;53.964;13.448;2023-07-30T13:27:31;8.02;;;1.60;;
29432;SDS011;16405;53.964;13.448;2023-07-30T13:29:59;5.03;;;1.42;;
29432;SDS011;16405;53.964;13.448;2023-07-30T13:32:25;7.70;;;1.70;;
29432;SDS011;16405;53.964;13.448;2023-07-30T13:34:51;7.45;;;1.45;;
29432;SDS011;16405;53.964;13.448;2023-07-30T13:37:17;4.82;;;1.58;;
29432;SDS011;16405;53.964;13.448;2023-07-30T13:39:42;4.85;;;1.55;;
29432;SDS011;16405;53.964;13.448;2023-07-30T13:42:08;5.53;;;1.58;;
29432;SDS011;16405;53.964;13.448;2023-07-30T13:44:39;4.82;;;1.52;;
29432;SDS011;16405;53.964;13.448;2023-07-30T13:47:05;5.07;;;1.35;;
29432;SDS011;16405;53.964;13.448;2023-07-30T13:49:31;9.23;;;1.80;;
29432;SDS011;16405;53.964;13.448;2023-07-30T13:51:56;4.82;;;1.80;;
29432;SDS011;16405;53.964;13.448;2023-07-30T13:54:22;3.40;;;1.63;;
29432;SDS011;16405;53.964;13.448;2023-07-30T13:56:48;6.45;;;1.98;;
29432;SDS011;16405;53.964;13.448;2023-07-30T13:59:14;5.22;;;1.98;;
29432;SDS011;16405;53.964;13.448;2023-07-30T14:01:42;3.92;;;1.50;;
29432;SDS011;16405;53.964;13.448;2023-07-30T14:04:08;5.55;;;1.48;;
29432;SDS011;16405;53.964;13.448;2023-07-30T14:06:34;9.18;;;2.17;;
29432;SDS011;16405;53.964;13.448;2023-07-30T14:09:00;5.88;;;1.70;;
29432;SDS011;16405;53.964;13.448;2023-07-30T14:11:26;5.85;;;1.73;;
29432;SDS011;16405;53.964;13.448;2023-07-30T14:13:52;4.93;;;1.75;;
29432;SDS011;16405;53.964;13.448;2023-07-30T14:16:26;6.18;;;1.80;;
29432;SDS011;16405;53.964;13.448;2023-07-30T14:18:52;3.92;;;1.55;;
29432;SDS011;16405;53.964;13.448;2023-07-30T14:21:17;7.20;;;1.63;;
29432;SDS011;16405;53.964;13.448;2023-07-30T14:23:43;5.28;;;1.67;;
29432;SDS011;16405;53.964;13.448;2023-07-30T14:26:11;5.85;;;1.45;;
29432;SDS011;16405;53.964;13.448;2023-07-30T14:28:40;4.53;;;1.50;;
29432;SDS011;16405;53.964;13.448;2023-07-30T14:31:06;6.32;;;1.90;;
29432;SDS011;16405;53.964;13.448;2023-07-30T14:33:32;6.50;;;1.65;;
29432;SDS011;16405;53.964;13.448;2023-07-30T14:35:58;4.63;;;1.52;;
29432;SDS011;16405;53.964;13.448;2023-07-30T14:38:24;4.60;;;1.73;;
29432;SDS011;16405;53.964;13.448;2023-07-30T14:40:49;5.93;;;1.90;;
29432;SDS011;16405;53.964;13.448;2023-07-30T14:43:18;5.38;;;1.60;;
29432;SDS011;16405;53.964;13.448;2023-07-30T14:45:44;6.38;;;1.77;;
29432;SDS011;16405;53.964;13.448;2023-07-30T14:48:10;4.13;;;1.88;;
29432;SDS011;16405;53.964;13.448;2023-07-30T14:50:35;5.13;;;1.50;;
29432;SDS011;16405;53.964;13.448;2023-07-30T14:53:01;4.30;;;1.67;;
29432;SDS011;16405;53.964;13.448;2023-07-30T14:55:28;3.08;;;1.25;;
29432;SDS011;16405;53.964;13.448;2023-07-30T14:57:53;3.90;;;1.50;;
29432;SDS011;16405;53.964;13.448;2023-07-30T15:00:19;6.40;;;1.70;;
29432;SDS011;16405;53.964;13.448;2023-07-30T15:02:47;5.28;;;1.80;;
29432;SDS011;16405;53.964;13.448;2023-07-30T15:05:13;10.73;;;1.80;;
29432;SDS011;16405;53.964;13.448;2023-07-30T15:07:39;12.10;;;1.90;;
29432;SDS011;16405;53.964;13.448;2023-07-30T15:10:05;8.07;;;1.95;;
29432;SDS011;16405;53.964;13.448;2023-07-30T15:12:31;7.25;;;1.42;;
29432;SDS011;16405;53.964;13.448;2023-07-30T15:14:57;6.78;;;1.50;;
29432;SDS011;16405;53.964;13.448;2023-07-30T15:17:32;4.03;;;1.58;;
29432;SDS011;16405;53.964;13.448;2023-07-30T15:19:58;7.50;;;1.90;;
29432;SDS011;16405;53.964;13.448;2023-07-30T15:22:24;5.82;;;2.00;;
29432;SDS011;16405;53.964;13.448;2023-07-30T15:24:51;8.43;;;2.00;;
29432;SDS011;16405;53.964;13.448;2023-07-30T15:27:19;23.75;;;2.15;;
29432;SDS011;16405;53.964;13.448;2023-07-30T15:29:45;22.63;;;2.70;;
29432;SDS011;16405;53.964;13.448;2023-07-30T15:32:10;10.45;;;1.90;;
29432;SDS011;16405;53.964;13.448;2023-07-30T15:34:36;11.95;;;2.45;;
29432;SDS011;16405;53.964;13.448;2023-07-30T15:37:02;3.20;;;1.50;;
29432;SDS011;16405;53.964;13.448;2023-07-30T15:39:28;6.93;;;1.80;;
29432;SDS011;16405;53.964;13.448;2023-07-30T15:41:54;5.55;;;1.85;;
29432;SDS011;16405;53.964;13.448;2023-07-30T15:44:22;6.40;;;1.70;;
29432;SDS011;16405;53.964;13.448;2023-07-30T15:46:48;9.73;;;1.80;;
29432;SDS011;16405;53.964;13.448;2023-07-30T15:49:14;6.93;;;1.90;;
29432;SDS011;16405;53.964;13.448;2023-07-30T15:51:39;6.38;;;1.73;;
29432;SDS011;16405;53.964;13.448;2023-07-30T15:54:05;6.68;;;1.85;;
29432;SDS011;16405;53.964;13.448;2023-07-30T15:56:31;9.02;;;2.13;;
29432;SDS011;16405;53.964;13.448;2023-07-30T15:58:57;7.00;;;2.25;;
29432;SDS011;16405;53.964;13.448;2023-07-30T16:01:22;5.50;;;1.77;;
29432;SDS011;16405;53.964;13.448;2023-07-30T16:03:51;3.90;;;1.83;;
29432;SDS011;16405;53.964;13.448;2023-07-30T16:06:16;4.55;;;1.85;;
29432;SDS011;16405;53.964;13.448;2023-07-30T16:08:42;8.75;;;2.17;;
29432;SDS011;16405;53.964;13.448;2023-07-30T16:11:08;6.45;;;1.92;;
29432;SDS011;16405;53.964;13.448;2023-07-30T16:13:35;9.43;;;2.28;;
29432;SDS011;16405;53.964;13.448;2023-07-30T16:16:08;5.50;;;1.90;;
29432;SDS011;16405;53.964;13.448;2023-07-30T16:18:36;10.43;;;2.40;;
29432;SDS011;16405;53.964;13.448;2023-07-30T16:21:03;6.18;;;2.15;;
29432;SDS011;16405;53.964;13.448;2023-07-30T16:23:34;5.80;;;2.05;;
29432;SDS011;16405;53.964;13.448;2023-07-30T16:26:00;9.05;;;2.20;;
29432;SDS011;16405;53.964;13.448;2023-07-30T16:28:26;7.30;;;2.10;;
29432;SDS011;16405;53.964;13.448;2023-07-30T16:30:52;8.48;;;2.08;;
29432;SDS011;16405;53.964;13.448;2023-07-30T16:33:18;7.32;;;2.03;;
29432;SDS011;16405;53.964;13.448;2023-07-30T16:35:45;7.55;;;1.80;;
29432;SDS011;16405;53.964;13.448;2023-07-30T16:38:15;8.68;;;2.22;;
29432;SDS011;16405;53.964;13.448;2023-07-30T16:40:42;11.20;;;2.47;;